Pagina principale
METAR-TAF:

METAR-TAF

Aeroporti :

Verona, Italia

Aeroporto di Verona-Villafranca

latitudine: 45-23N, longitudine: 010-52E, altezza: 67 m

Osservazione

Il bollettino è stato emesso 19 minuti fa, alle 09:20 UTC
Vento 4 kt da sud/sud-est, variando fra est/sud-est e sud-ovest
Temperature 27°C
Umidità 37%
Pressione 1017 hPa
Visibilità 10 km o più
nessuna nube inferiore a 1500 m e nessun cumulonembo

METAR: LIPX 290920Z 16004KT 120V230 CAVOK 27/11 Q1017

Ora: 11:39 (09:39 UTC)

Previsione

Il bollettino è stato emesso 1 ora e 39 minuti fa, alle 08:00 UTC
Previsione valida dal 29 alle 09 UTC al 29 alle 18 UTC
Vento 5 kt da direzioni variabili
Visibilità 10 km o più
nessuna nube inferiore a 1500 m e nessun cumulonembo

TAF: LIPX 290800Z 2909/2918 VRB05KT CAVOK

Osservazioni e previsioni meteorologiche di più di 4000 aeroporti (messaggi METAR e TAF).

Le stazioni disponibili sono rappresentate dai dischi gialli e rossi sulla carta.

Puntare il mouse per vedere il nome della stazione.

Clicca sopra per visualizzare le osservazioni e previsioni meteorologiche.

Per cambiare la mappa : fare clic sui pulsanti verdi con una croce nera per ingrandire, il pulsante verde con un trattino per diminuire, o sulla freccia verde per le mappe adiacenti.


METAR-TAF: